Time;durP1;ratioP1;P1;durP2;ratioP2;P2;SDS_P1;SDS_P2;PMS_P1;PMS_P2;Temp;Humidity;BMP_temperature;BMP_pressure;BME280_temperature;BME280_humidity;BME280_pressure;Samples;Min_cycle;Max_cycle;Signal;HPM_P1;HPM_P2
2023/09/14 00:01:28;;;;;;;6.22;1.35;;;27.40;55.20;;;;;;10478031;28;20133;-35
2023/09/14 00:06:30;;;;;;;4.38;1.30;;;27.30;55.20;;;;;;10477036;28;20048;-35
2023/09/14 00:11:31;;;;;;;3.72;1.17;;;27.40;55.30;;;;;;10498496;28;20148;-34
2023/09/14 00:16:34;;;;;;;2.83;1.05;;;27.30;55.20;;;;;;10484731;28;20536;-34
2023/09/14 00:21:36;;;;;;;4.35;1.40;;;27.30;55.20;;;;;;10472643;28;20095;-34
2023/09/14 00:26:38;;;;;;;3.80;1.33;;;27.20;55.30;;;;;;10482955;28;20128;-33
2023/09/14 00:31:41;;;;;;;3.25;1.25;;;27.20;55.30;;;;;;10480952;28;20076;-38
2023/09/14 00:36:43;;;;;;;2.65;1.23;;;27.20;55.30;;;;;;10484026;28;20091;-37
2023/09/14 00:41:45;;;;;;;3.20;1.30;;;27.20;55.40;;;;;;10488342;28;20080;-37
2023/09/14 00:46:48;;;;;;;1.98;0.95;;;27.20;55.30;;;;;;10485463;28;20052;-35
2023/09/14 00:51:51;;;;;;;1.80;1.00;;;27.10;55.30;;;;;;10473931;28;20137;-34
2023/09/14 00:56:53;;;;;;;3.40;1.38;;;27.10;55.90;;;;;;10488295;28;20480;-37
2023/09/14 01:01:56;;;;;;;2.15;1.10;;;27.00;55.40;;;;;;10489852;28;20126;-38
2023/09/14 01:06:58;;;;;;;1.67;1.15;;;27.10;55.40;;;;;;10486513;28;20072;-37
2023/09/14 01:12:00;;;;;;;2.65;1.20;;;27.00;55.40;;;;;;10487821;28;20561;-43
2023/09/14 01:17:18;;;;;;;3.45;1.10;;;27.00;55.40;;;;;;10486641;28;20138;-40
2023/09/14 01:22:35;;;;;;;1.70;1.08;;;27.00;55.40;;;;;;10478208;28;20110;-38
2023/09/14 01:27:38;;;;;;;2.03;0.90;;;26.90;55.40;;;;;;10481287;28;20497;-36
2023/09/14 01:32:40;;;;;;;1.90;1.08;;;26.90;55.40;;;;;;10487025;28;20152;-34
2023/09/14 01:37:42;;;;;;;2.55;1.10;;;26.90;55.30;;;;;;10468526;28;20134;-35
2023/09/14 01:42:45;;;;;;;2.72;0.85;;;26.90;55.40;;;;;;10476614;28;20052;-35
2023/09/14 01:47:52;;;;;;;3.65;1.42;;;26.80;55.40;;;;;;10482857;28;20083;-34
2023/09/14 01:52:55;;;;;;;4.60;1.20;;;26.80;55.40;;;;;;10478557;28;20052;-37
2023/09/14 01:57:58;;;;;;;3.35;1.00;;;26.70;55.40;;;;;;10472828;28;20137;-32
2023/09/14 02:03:00;;;;;;;3.92;1.55;;;26.70;55.40;;;;;;10470292;28;20049;-33
2023/09/14 02:08:02;;;;;;;4.25;1.15;;;26.70;55.40;;;;;;10474966;28;20464;-36
2023/09/14 02:13:05;;;;;;;2.67;1.25;;;26.70;55.40;;;;;;10474484;28;20592;-34
2023/09/14 02:18:07;;;;;;;2.72;1.00;;;26.70;55.50;;;;;;10486462;28;20084;-33
2023/09/14 02:23:10;;;;;;;3.10;1.20;;;26.70;55.50;;;;;;10479413;28;20063;-32
2023/09/14 02:28:15;;;;;;;2.67;1.00;;;26.60;55.40;;;;;;10477925;28;20533;-35
2023/09/14 02:33:17;;;;;;;3.58;0.90;;;26.60;55.50;;;;;;10474502;28;20044;-34
2023/09/14 02:38:19;;;;;;;2.28;1.17;;;26.60;55.50;;;;;;10483616;28;20076;-34
2023/09/14 02:43:23;;;;;;;2.38;1.10;;;26.50;55.50;;;;;;10465678;28;20075;-34
2023/09/14 02:48:24;;;;;;;1.77;1.10;;;26.60;55.60;;;;;;10468584;28;20053;-33
2023/09/14 02:53:26;;;;;;;3.55;1.10;;;26.50;55.60;;;;;;10478642;28;20068;-33
2023/09/14 03:15:28;;;;;;;2.95;1.10;;;26.30;55.50;;;;;;10483911;27;2322073;-33
2023/09/14 03:20:29;;;;;;;2.35;0.98;;;26.30;56.00;;;;;;10515208;28;20693;-34
2023/09/14 03:25:32;;;;;;;1.73;1.00;;;26.30;55.90;;;;;;10512858;28;20114;-39
2023/09/14 03:30:37;;;;;;;2.13;1.38;;;26.30;55.80;;;;;;10515821;28;20044;-34
2023/09/14 03:35:39;;;;;;;2.45;1.15;;;26.30;55.90;;;;;;10515050;28;20135;-34
2023/09/14 03:40:41;;;;;;;1.90;1.00;;;26.30;56.00;;;;;;10539994;28;20135;-38
2023/09/14 03:45:44;;;;;;;2.00;0.90;;;26.20;55.90;;;;;;10539373;28;20052;-34
2023/09/14 03:50:46;;;;;;;1.75;0.70;;;26.30;56.00;;;;;;10548095;28;20075;-36
2023/09/14 03:55:47;;;;;;;2.95;1.35;;;26.20;55.90;;;;;;10553653;28;20047;-35
2023/09/14 04:00:51;;;;;;;2.28;1.05;;;26.20;55.90;;;;;;10527206;28;20044;-34
2023/09/14 04:05:53;;;;;;;2.50;0.90;;;26.20;56.00;;;;;;10525145;28;20048;-36
2023/09/14 04:10:55;;;;;;;3.60;1.50;;;26.20;56.00;;;;;;10524134;28;20044;-36
2023/09/14 04:16:01;;;;;;;2.00;1.00;;;26.20;56.10;;;;;;10528966;28;20413;-33
2023/09/14 04:21:03;;;;;;;2.60;1.10;;;26.10;56.50;;;;;;10514649;28;20051;-33
2023/09/14 04:26:05;;;;;;;2.38;1.00;;;26.10;56.00;;;;;;10507478;28;20055;-33
2023/09/14 04:31:09;;;;;;;1.92;1.00;;;26.10;56.00;;;;;;10486544;28;20136;-33
2023/09/14 04:36:11;;;;;;;2.50;1.20;;;26.10;56.10;;;;;;10496598;28;20044;-34
2023/09/14 04:41:13;;;;;;;1.77;1.05;;;26.10;56.10;;;;;;10508431;28;20079;-36
2023/09/14 04:46:16;;;;;;;3.35;1.30;;;26.10;56.10;;;;;;10483400;28;20076;-34
2023/09/14 04:51:20;;;;;;;4.28;1.30;;;26.00;56.10;;;;;;10505161;28;20071;-34
2023/09/14 04:56:22;;;;;;;3.63;1.30;;;26.10;56.20;;;;;;10499635;28;20082;-36
2023/09/14 05:01:25;;;;;;;1.52;0.80;;;26.00;56.10;;;;;;10486963;28;20048;-34
2023/09/14 05:06:27;;;;;;;2.22;1.20;;;26.00;56.20;;;;;;10479381;28;20106;-36
2023/09/14 05:11:29;;;;;;;2.40;1.15;;;26.00;56.20;;;;;;10481320;28;20052;-37
2023/09/14 05:16:32;;;;;;;2.45;0.90;;;25.90;56.20;;;;;;10485645;28;20056;-38
2023/09/14 05:21:34;;;;;;;5.82;1.30;;;25.90;56.20;;;;;;10489910;28;20574;-33
2023/09/14 05:26:36;;;;;;;2.75;1.30;;;25.90;56.30;;;;;;10479093;28;20579;-34
2023/09/14 05:31:39;;;;;;;2.40;1.05;;;25.90;56.40;;;;;;10489897;28;20231;-35
2023/09/14 05:36:41;;;;;;;2.67;1.10;;;25.80;56.40;;;;;;10480681;28;20127;-34
2023/09/14 05:41:43;;;;;;;2.90;1.00;;;25.90;56.60;;;;;;10484088;28;20416;-32
2023/09/14 05:46:46;;;;;;;1.45;0.93;;;25.80;56.70;;;;;;10479486;28;20097;-33
2023/09/14 05:51:48;;;;;;;2.10;1.42;;;25.80;56.80;;;;;;10484757;28;20121;-36
2023/09/14 05:56:50;;;;;;;2.83;1.25;;;25.80;56.80;;;;;;10483587;28;21408;-39
2023/09/14 06:01:53;;;;;;;2.53;1.00;;;25.80;56.80;;;;;;10483777;28;20057;-36
2023/09/14 06:06:55;;;;;;;7.60;1.15;;;25.80;56.80;;;;;;10483792;28;20131;-34
2023/09/14 06:11:57;;;;;;;4.18;1.30;;;25.80;56.70;;;;;;10483120;28;20883;-33
2023/09/14 06:17:00;;;;;;;3.03;1.13;;;25.80;56.70;;;;;;10474219;28;20123;-34
2023/09/14 06:22:02;;;;;;;5.47;1.58;;;25.80;56.70;;;;;;10478703;28;20059;-34
2023/09/14 06:27:04;;;;;;;9.52;1.63;;;25.80;56.70;;;;;;10481982;28;20139;-35
2023/09/14 06:32:07;;;;;;;2.20;1.23;;;25.80;56.70;;;;;;10495337;28;20146;-33
2023/09/14 06:37:10;;;;;;;3.83;1.30;;;25.80;56.70;;;;;;10471049;28;20052;-37
2023/09/14 06:42:12;;;;;;;4.35;1.77;;;25.80;56.70;;;;;;10480344;28;20485;-32
2023/09/14 06:47:15;;;;;;;3.05;1.30;;;25.80;56.80;;;;;;10491834;28;20090;-37
2023/09/14 06:52:17;;;;;;;3.42;1.52;;;25.80;56.90;;;;;;10488730;28;20161;-32
2023/09/14 06:57:19;;;;;;;4.32;1.42;;;25.70;56.80;;;;;;10482259;28;20582;-36
2023/09/14 07:02:22;;;;;;;4.28;1.63;;;25.80;56.80;;;;;;10471764;28;20546;-35
2023/09/14 07:07:24;;;;;;;4.40;1.33;;;25.80;56.80;;;;;;10484401;28;20044;-37
2023/09/14 07:12:26;;;;;;;4.53;2.08;;;25.90;56.90;;;;;;10472303;28;20060;-38
2023/09/14 07:17:30;;;;;;;4.53;1.60;;;25.80;56.80;;;;;;10480900;28;20458;-33
2023/09/14 07:22:31;;;;;;;5.10;1.73;;;25.80;57.40;;;;;;10482143;28;20094;-39
2023/09/14 07:27:33;;;;;;;5.22;1.92;;;25.80;56.80;;;;;;10479533;28;20143;-35
2023/09/14 07:32:37;;;;;;;5.28;1.60;;;25.80;56.80;;;;;;10490174;28;20140;-34
2023/09/14 07:37:39;;;;;;;5.25;1.85;;;25.80;56.70;;;;;;10485549;28;20051;-33
2023/09/14 07:42:41;;;;;;;4.57;1.48;;;25.90;56.70;;;;;;10488968;28;20458;-39
2023/09/14 07:47:45;;;;;;;4.32;1.92;;;25.80;56.70;;;;;;10488459;28;20086;-35
2023/09/14 07:52:47;;;;;;;9.10;1.90;;;25.80;56.60;;;;;;10492551;28;20084;-36
2023/09/14 07:57:49;;;;;;;3.50;1.90;;;25.80;56.50;;;;;;10489386;28;20127;-45
2023/09/14 08:02:52;;;;;;;4.40;2.03;;;25.80;56.60;;;;;;10499293;28;20059;-40
2023/09/14 08:07:54;;;;;;;3.70;2.00;;;25.80;56.60;;;;;;10509826;28;20423;-34
2023/09/14 08:12:56;;;;;;;4.90;2.08;;;25.90;56.60;;;;;;10492779;28;20147;-34
2023/09/14 08:17:59;;;;;;;3.67;1.90;;;25.90;56.70;;;;;;10491246;28;20064;-34
2023/09/14 08:23:01;;;;;;;4.50;1.73;;;25.90;56.70;;;;;;10505247;28;20381;-34
2023/09/14 08:28:03;;;;;;;3.28;1.42;;;26.00;56.70;;;;;;10503646;28;21277;-35
2023/09/14 08:33:06;;;;;;;9.85;1.65;;;26.00;56.70;;;;;;10489643;28;20080;-33
2023/09/14 08:38:09;;;;;;;4.05;1.58;;;26.10;56.90;;;;;;10504356;28;20075;-38
2023/09/14 08:43:13;;;;;;;6.43;1.63;;;26.10;56.90;;;;;;10495726;28;20147;-33
2023/09/14 08:48:21;;;;;;;3.25;1.45;;;26.10;57.00;;;;;;10471409;28;20192;-33
2023/09/14 08:53:24;;;;;;;3.30;1.52;;;26.20;57.10;;;;;;10495401;28;20045;-35
2023/09/14 08:58:27;;;;;;;3.88;1.10;;;26.10;57.20;;;;;;10492171;28;20190;-37
2023/09/14 09:03:31;;;;;;;1.95;1.00;;;26.20;57.30;;;;;;10486860;28;20456;-33
2023/09/14 09:08:33;;;;;;;2.20;1.08;;;26.30;57.30;;;;;;10495520;28;20496;-33
2023/09/14 09:13:36;;;;;;;2.67;1.00;;;26.30;57.30;;;;;;10489675;28;20726;-37
2023/09/14 09:19:01;;;;;;;3.63;0.90;;;26.30;57.40;;;;;;10492629;28;20048;-37
2023/09/14 09:24:06;;;;;;;4.50;1.00;;;26.40;57.50;;;;;;10485367;28;20059;-34
2023/09/14 09:29:15;;;;;;;3.35;1.17;;;26.40;57.40;;;;;;10488645;28;20052;-34
2023/09/14 09:34:23;;;;;;;3.63;1.52;;;26.40;57.40;;;;;;10471761;28;20076;-37
2023/09/14 09:39:26;;;;;;;3.55;1.20;;;26.40;57.40;;;;;;10481264;28;20584;-33
2023/09/14 09:44:27;;;;;;;3.40;1.48;;;26.50;57.50;;;;;;10484462;28;20068;-40
2023/09/14 09:49:31;;;;;;;1.75;1.00;;;26.50;57.40;;;;;;10480817;28;20106;-34
2023/09/14 09:54:35;;;;;;;1.67;1.17;;;26.50;57.40;;;;;;10497920;28;20058;-36
2023/09/14 09:59:37;;;;;;;2.30;1.10;;;26.60;57.30;;;;;;10495797;28;20067;-33
2023/09/14 10:04:51;;;;;;;2.13;1.10;;;26.60;57.20;;;;;;10487805;28;20040;-30
2023/09/14 10:09:54;;;;;;;2.42;1.13;;;26.60;57.20;;;;;;10494212;28;20079;-33
2023/09/14 10:14:58;;;;;;;2.00;1.00;;;26.60;57.20;;;;;;10482684;28;20044;-37
2023/09/14 10:20:05;;;;;;;2.53;1.20;;;26.70;57.10;;;;;;10484665;28;20087;-35
2023/09/14 10:25:09;;;;;;;2.47;1.10;;;26.70;57.30;;;;;;10484371;28;20135;-33
2023/09/14 10:30:17;;;;;;;1.95;1.17;;;26.40;57.90;;;;;;10488841;28;20563;-38
2023/09/14 10:35:21;;;;;;;5.60;1.50;;;26.50;55.90;;;;;;10492557;28;20055;-37
2023/09/14 10:40:24;;;;;;;1.92;1.20;;;26.70;57.40;;;;;;10487680;28;20079;-37
2023/09/14 10:45:31;;;;;;;1.80;1.23;;;26.80;57.30;;;;;;10479743;28;20064;-34
2023/09/14 10:50:35;;;;;;;3.53;1.27;;;26.70;57.40;;;;;;10480919;28;20072;-34
2023/09/14 10:55:38;;;;;;;1.92;1.33;;;26.90;57.00;;;;;;10488354;28;20478;-38
2023/09/14 11:00:42;;;;;;;4.97;1.65;;;26.90;56.00;;;;;;10492988;28;20045;-39
2023/09/14 11:05:47;;;;;;;4.35;1.67;;;27.00;57.00;;;;;;10482029;28;20131;-40
2023/09/14 11:10:56;;;;;;;3.97;1.13;;;26.40;58.10;;;;;;10493869;28;20131;-33
2023/09/14 11:16:06;;;;;;;4.13;1.40;;;27.00;57.10;;;;;;10495532;28;20045;-35
2023/09/14 11:21:42;;;;;;;3.45;1.10;;;27.00;56.80;;;;;;10494109;28;20048;-36
2023/09/14 11:26:49;;;;;;;2.95;1.75;;;27.10;56.70;;;;;;10485419;28;20136;-37
2023/09/14 11:32:01;;;;;;;6.68;1.50;;;27.00;55.90;;;;;;10488250;28;20064;-35
2023/09/14 11:37:06;;;;;;;2.88;1.38;;;26.40;57.90;;;;;;10485984;28;20175;-33
2023/09/14 11:42:08;;;;;;;9.50;3.42;;;26.90;56.90;;;;;;10498579;28;20048;-37
2023/09/14 11:47:10;;;;;;;3.13;1.73;;;25.80;55.50;;;;;;10496226;28;20147;-35
2023/09/14 11:52:19;;;;;;;4.93;2.10;;;27.10;56.50;;;;;;10488550;28;20837;-33
2023/09/14 11:57:27;;;;;;;2.92;1.77;;;26.50;56.40;;;;;;10498971;28;20047;-38
2023/09/14 12:02:30;;;;;;;2.47;1.30;;;27.00;56.80;;;;;;10489711;28;20127;-34
2023/09/14 12:07:33;;;;;;;3.17;1.40;;;27.10;56.40;;;;;;10484287;28;20075;-43
2023/09/14 12:12:36;;;;;;;5.95;2.65;;;27.30;56.00;;;;;;10488103;28;20173;-32
2023/09/14 12:17:37;;;;;;;3.80;1.70;;;26.50;55.40;;;;;;10492502;28;20110;-38
2023/09/14 12:22:40;;;;;;;2.92;1.27;;;26.90;57.00;;;;;;10483920;28;20122;-35
2023/09/14 12:27:43;;;;;;;2.60;1.70;;;27.40;54.20;;;;;;10484793;28;20048;-33
2023/09/14 12:32:44;;;;;;;1.90;1.30;;;26.10;58.70;;;;;;10506083;28;20088;-34
2023/09/14 12:37:48;;;;;;;3.65;1.35;;;27.30;56.50;;;;;;10482408;28;20131;-39
2023/09/14 12:42:50;;;;;;;3.55;1.48;;;27.50;55.80;;;;;;10490580;28;20290;-39
2023/09/14 12:47:52;;;;;;;1.38;1.00;;;26.80;56.40;;;;;;10481783;28;20086;-36
2023/09/14 12:52:57;;;;;;;2.33;1.40;;;27.60;55.70;;;;;;10488452;28;20056;-32
2023/09/14 12:57:59;;;;;;;3.83;1.30;;;27.80;55.20;;;;;;10464339;28;20068;-40
2023/09/14 13:03:01;;;;;;;2.00;1.33;;;27.60;55.60;;;;;;10496855;28;20076;-34
2023/09/14 13:08:08;;;;;;;9.00;2.55;;;27.80;55.40;;;;;;10484062;28;20055;-37
2023/09/14 13:13:10;;;;;;;4.72;2.47;;;26.60;54.00;;;;;;10486082;28;20564;-37
2023/09/14 13:18:14;;;;;;;2.42;1.30;;;27.40;52.80;;;;;;10490853;28;20048;-33
2023/09/14 13:23:18;;;;;;;1.50;1.02;;;27.80;55.50;;;;;;10489853;28;20515;-35
2023/09/14 13:28:20;;;;;;;2.03;1.05;;;27.90;55.20;;;;;;10489859;28;20079;-35
2023/09/14 13:33:22;;;;;;;2.03;1.05;;;28.10;54.80;;;;;;10489020;28;20143;-40
2023/09/14 13:38:25;;;;;;;6.80;2.50;;;28.30;54.80;;;;;;10492011;28;20474;-41
2023/09/14 13:43:28;;;;;;;2.67;1.70;;;28.30;51.60;;;;;;10490139;28;20484;-35
2023/09/14 13:48:29;;;;;;;3.30;0.93;;;28.40;54.20;;;;;;10487983;28;20087;-33
2023/09/14 13:53:32;;;;;;;9.13;1.70;;;28.50;54.80;;;;;;10482630;28;20076;-35
2023/09/14 13:58:35;;;;;;;2.95;1.35;;;28.20;54.30;;;;;;10499423;28;20676;-34
2023/09/14 14:03:37;;;;;;;7.63;1.92;;;28.80;56.40;;;;;;10488157;28;20053;-34
2023/09/14 14:08:40;;;;;;;3.72;1.48;;;28.90;55.50;;;;;;10490308;28;20044;-35
2023/09/14 14:13:42;;;;;;;1.35;1.00;;;28.70;56.50;;;;;;10490577;28;20152;-33
2023/09/14 14:18:44;;;;;;;5.72;2.30;;;28.90;55.50;;;;;;10491710;28;20135;-35
2023/09/14 14:23:47;;;;;;;2.58;1.60;;;29.10;56.90;;;;;;10485096;28;20075;-33
2023/09/14 14:28:49;;;;;;;10.35;2.92;;;29.20;56.40;;;;;;10484576;28;20151;-35
2023/09/14 14:33:51;;;;;;;1.40;1.17;;;29.40;49.10;;;;;;10488699;28;20076;-38
2023/09/14 14:38:54;;;;;;;5.38;1.98;;;29.60;55.30;;;;;;10477872;28;20072;-36
2023/09/14 14:43:56;;;;;;;3.90;1.17;;;29.80;56.20;;;;;;10486460;28;20501;-35
2023/09/14 14:48:58;;;;;;;7.70;3.25;;;29.50;55.70;;;;;;10487542;28;20093;-37
2023/09/14 14:54:04;;;;;;;2.03;1.17;;;30.20;53.30;;;;;;10476068;28;20066;-33
2023/09/14 14:59:06;;;;;;;3.97;1.77;;;30.10;57.10;;;;;;10485243;28;20088;-37
2023/09/14 15:04:08;;;;;;;1.92;1.10;;;30.30;51.40;;;;;;10478661;28;20136;-37
2023/09/14 15:09:12;;;;;;;4.03;1.30;;;30.60;56.70;;;;;;10488845;28;20131;-38
2023/09/14 15:14:14;;;;;;;2.50;1.20;;;30.80;56.30;;;;;;10481577;28;20055;-35
2023/09/14 15:19:17;;;;;;;1.48;1.10;;;30.30;55.60;;;;;;10469461;28;20590;-30
2023/09/14 15:24:21;;;;;;;1.88;0.98;;;30.20;55.50;;;;;;10471728;28;20040;-35
2023/09/14 15:29:23;;;;;;;3.22;1.42;;;30.30;54.30;;;;;;10457170;28;20055;-33
2023/09/14 15:34:25;;;;;;;6.22;1.40;;;30.40;51.20;;;;;;10471470;28;20098;-31
2023/09/14 15:39:30;;;;;;;2.63;1.17;;;31.30;57.30;;;;;;10492356;28;20618;-32
2023/09/14 15:44:34;;;;;;;2.97;1.10;;;30.80;55.00;;;;;;10491885;28;20512;-33
2023/09/14 15:49:37;;;;;;;1.48;0.85;;;30.50;55.20;;;;;;10482355;28;20054;-38
2023/09/14 15:54:40;;;;;;;3.20;1.58;;;30.80;54.90;;;;;;10482979;28;20092;-42
2023/09/14 15:59:42;;;;;;;5.07;1.27;;;30.90;53.60;;;;;;10475855;28;20052;-40
2023/09/14 16:04:44;;;;;;;2.60;1.40;;;30.70;54.10;;;;;;10485998;28;20150;-32
2023/09/14 16:09:47;;;;;;;4.18;1.48;;;30.40;54.90;;;;;;10481167;28;20493;-39
2023/09/14 16:14:49;;;;;;;6.50;1.52;;;30.40;54.20;;;;;;10480809;28;20561;-47
2023/09/14 16:19:52;;;;;;;3.65;1.30;;;30.40;54.00;;;;;;10482016;28;20097;-36
2023/09/14 16:24:55;;;;;;;4.35;1.63;;;30.40;53.90;;;;;;10475598;28;20053;-36
2023/09/14 16:29:57;;;;;;;8.30;1.73;;;30.40;53.80;;;;;;10480338;28;20130;-32
2023/09/14 16:34:59;;;;;;;5.43;1.58;;;30.50;53.80;;;;;;10464186;28;20492;-34
2023/09/14 16:40:04;;;;;;;3.72;1.60;;;30.50;53.70;;;;;;10474434;28;20041;-32
2023/09/14 16:45:07;;;;;;;4.03;1.85;;;30.50;53.60;;;;;;10482836;28;20091;-32
2023/09/14 16:50:10;;;;;;;3.25;1.48;;;30.50;53.50;;;;;;10486342;28;20493;-31
2023/09/14 16:55:13;;;;;;;6.68;1.95;;;30.50;53.20;;;;;;10488379;28;20048;-33
2023/09/14 17:00:16;;;;;;;3.40;1.70;;;30.50;53.10;;;;;;10481778;28;20353;-40
2023/09/14 17:05:18;;;;;;;6.85;1.65;;;30.50;53.00;;;;;;10483968;28;20044;-33
2023/09/14 17:10:21;;;;;;;5.75;1.30;;;30.60;53.00;;;;;;10494218;28;20139;-37
2023/09/14 17:15:23;;;;;;;4.82;1.42;;;30.50;52.90;;;;;;10482091;28;20087;-38
2023/09/14 17:20:26;;;;;;;2.50;1.50;;;30.60;53.00;;;;;;10488416;28;20574;-32
2023/09/14 17:25:29;;;;;;;1.65;1.10;;;30.60;53.00;;;;;;10485671;28;20128;-32
2023/09/14 17:30:32;;;;;;;2.38;1.23;;;30.60;53.00;;;;;;10480403;28;20068;-35
2023/09/14 17:35:35;;;;;;;2.40;1.30;;;30.60;53.00;;;;;;10481919;28;20684;-34
2023/09/14 17:40:38;;;;;;;4.57;1.45;;;30.50;53.00;;;;;;10489266;28;20417;-35
2023/09/14 17:45:40;;;;;;;2.88;1.20;;;30.50;53.10;;;;;;10484074;28;20501;-39
2023/09/14 17:50:42;;;;;;;2.28;1.20;;;30.50;53.00;;;;;;10486643;28;20110;-31
2023/09/14 17:55:46;;;;;;;3.22;1.42;;;30.50;53.20;;;;;;10486555;28;21774;-33
2023/09/14 18:00:48;;;;;;;4.25;1.60;;;30.40;53.70;;;;;;10479359;28;20122;-34
2023/09/14 18:05:52;;;;;;;4.53;1.40;;;30.40;53.40;;;;;;10491927;28;20582;-38
2023/09/14 18:10:55;;;;;;;4.82;1.45;;;30.30;53.30;;;;;;10470399;28;20040;-35
2023/09/14 18:15:57;;;;;;;3.80;1.30;;;30.20;53.40;;;;;;10476789;28;20136;-38
2023/09/14 18:20:59;;;;;;;2.22;1.30;;;30.20;53.80;;;;;;10495317;28;20156;-33
2023/09/14 18:26:03;;;;;;;3.17;1.67;;;30.10;53.70;;;;;;10486175;28;20390;-33
2023/09/14 18:31:05;;;;;;;2.28;1.50;;;30.10;53.70;;;;;;10491677;28;20051;-40
2023/09/14 18:36:08;;;;;;;4.57;1.70;;;30.10;54.80;;;;;;10487241;28;20140;-37
2023/09/14 18:41:12;;;;;;;6.20;1.90;;;30.10;53.90;;;;;;10481797;28;20041;-36
2023/09/14 18:46:15;;;;;;;3.85;1.95;;;29.90;53.80;;;;;;10492860;28;20052;-37
2023/09/14 18:51:17;;;;;;;2.80;1.70;;;29.80;53.90;;;;;;10484550;28;20067;-35
2023/09/14 18:56:20;;;;;;;5.22;2.42;;;29.80;54.00;;;;;;10487442;28;20085;-34
2023/09/14 19:01:23;;;;;;;2.75;1.60;;;29.70;54.10;;;;;;10480587;28;20136;-33
2023/09/14 19:06:25;;;;;;;5.70;1.50;;;29.70;54.20;;;;;;10486755;28;20489;-32
2023/09/14 19:11:28;;;;;;;4.75;2.13;;;29.70;54.30;;;;;;10486515;28;20059;-35
2023/09/14 19:16:31;;;;;;;4.85;2.10;;;29.60;54.30;;;;;;10474812;28;20044;-35
2023/09/14 19:21:34;;;;;;;6.10;2.13;;;29.50;54.30;;;;;;10490424;28;20044;-30
2023/09/14 19:26:37;;;;;;;8.88;2.70;;;29.50;54.50;;;;;;10486686;28;20535;-37
2023/09/14 19:31:39;;;;;;;6.88;2.63;;;29.50;54.50;;;;;;10482921;28;20127;-35
2023/09/14 19:36:41;;;;;;;6.32;2.25;;;29.40;54.70;;;;;;10491733;28;20139;-32
2023/09/14 19:41:44;;;;;;;9.13;2.65;;;29.40;54.70;;;;;;10474662;28;20626;-37
2023/09/14 19:46:46;;;;;;;12.57;3.20;;;29.30;54.70;;;;;;10491785;28;20049;-41
2023/09/14 19:51:48;;;;;;;11.27;2.60;;;29.30;55.40;;;;;;10480697;28;20128;-36
2023/09/14 19:56:52;;;;;;;4.28;2.10;;;29.30;54.80;;;;;;10488874;28;20045;-31
2023/09/14 20:01:54;;;;;;;4.72;1.95;;;29.20;55.00;;;;;;10487364;28;20084;-35
2023/09/14 20:06:56;;;;;;;6.57;2.72;;;29.20;55.00;;;;;;10485691;28;20113;-32
2023/09/14 20:12:00;;;;;;;8.80;2.28;;;29.10;55.00;;;;;;10488419;28;20521;-36
2023/09/14 20:17:02;;;;;;;5.20;2.03;;;29.10;55.10;;;;;;10487434;28;20143;-30
2023/09/14 20:22:04;;;;;;;6.95;2.03;;;29.00;55.10;;;;;;10482765;28;20048;-37
2023/09/14 20:27:08;;;;;;;7.60;2.00;;;29.00;55.10;;;;;;10480587;28;20040;-35
2023/09/14 20:32:10;;;;;;;5.07;1.83;;;28.90;55.20;;;;;;10485009;28;20072;-37
2023/09/14 20:37:13;;;;;;;4.18;1.92;;;28.90;55.20;;;;;;10481710;28;20048;-33
2023/09/14 20:42:17;;;;;;;5.88;1.75;;;28.80;55.10;;;;;;10481920;28;20087;-44
2023/09/14 20:47:20;;;;;;;4.85;1.98;;;28.80;55.30;;;;;;10485627;28;20052;-38
2023/09/14 20:52:22;;;;;;;5.45;2.22;;;28.80;55.40;;;;;;10487618;28;20496;-38
2023/09/14 20:57:25;;;;;;;4.05;1.83;;;28.70;55.30;;;;;;10484799;28;20036;-37
2023/09/14 21:02:27;;;;;;;7.20;2.13;;;28.70;55.40;;;;;;10492383;28;20072;-34
2023/09/14 21:07:29;;;;;;;3.67;2.00;;;28.70;55.50;;;;;;10484608;28;20138;-37
2023/09/14 21:12:32;;;;;;;4.95;2.13;;;28.60;55.60;;;;;;10494539;28;20480;-36
2023/09/14 21:17:34;;;;;;;3.50;1.77;;;28.50;56.10;;;;;;10488951;28;20048;-39
2023/09/14 21:22:36;;;;;;;4.75;1.88;;;28.50;55.60;;;;;;10482692;28;20120;-37
2023/09/14 21:27:39;;;;;;;4.82;2.00;;;28.50;55.70;;;;;;10473512;28;20041;-35
2023/09/14 21:32:41;;;;;;;5.10;1.88;;;28.40;55.70;;;;;;10486063;28;20052;-36
2023/09/14 21:37:43;;;;;;;4.40;1.85;;;28.40;55.70;;;;;;10493142;28;20106;-34
2023/09/14 21:42:46;;;;;;;5.28;1.80;;;28.30;55.70;;;;;;10494970;28;21083;-38
2023/09/14 21:47:48;;;;;;;4.63;1.90;;;28.30;55.80;;;;;;10468167;28;20148;-36
2023/09/14 21:52:51;;;;;;;3.53;1.90;;;28.30;55.80;;;;;;10475341;28;20164;-37
2023/09/14 21:57:54;;;;;;;2.95;1.63;;;28.20;55.80;;;;;;10483528;28;20048;-35
2023/09/14 22:02:56;;;;;;;2.47;1.65;;;28.20;55.90;;;;;;10491474;28;20679;-39
2023/09/14 22:07:58;;;;;;;5.97;2.20;;;28.10;56.00;;;;;;10485087;28;20123;-34
2023/09/14 22:13:01;;;;;;;3.28;1.80;;;28.10;56.00;;;;;;10485698;28;20040;-35
2023/09/14 22:18:05;;;;;;;2.00;1.60;;;28.10;56.10;;;;;;10484561;28;20066;-34
2023/09/14 22:23:09;;;;;;;5.28;2.10;;;28.10;56.10;;;;;;10470262;28;21018;-41
2023/09/14 22:28:13;;;;;;;2.55;1.80;;;28.00;56.10;;;;;;10483586;28;20404;-32
2023/09/14 22:33:16;;;;;;;3.72;1.77;;;28.00;56.10;;;;;;10479286;28;20390;-36
2023/09/14 22:38:18;;;;;;;4.72;1.85;;;28.00;56.20;;;;;;10482422;28;20055;-32
2023/09/14 22:43:21;;;;;;;3.03;1.85;;;27.90;56.20;;;;;;10486798;28;20040;-32
2023/09/14 22:48:23;;;;;;;4.32;1.92;;;27.90;56.20;;;;;;10482063;28;20486;-35
2023/09/14 22:53:25;;;;;;;3.17;2.10;;;27.90;56.20;;;;;;10482334;28;20660;-33
2023/09/14 22:58:29;;;;;;;3.22;1.95;;;27.80;56.20;;;;;;10479023;28;20135;-34
2023/09/14 23:03:31;;;;;;;3.10;1.73;;;27.80;56.20;;;;;;10484167;28;20051;-32
2023/09/14 23:08:35;;;;;;;5.85;2.30;;;27.70;56.30;;;;;;10488031;28;20057;-33
2023/09/14 23:13:38;;;;;;;3.03;1.75;;;27.70;56.40;;;;;;10483082;28;20487;-34
2023/09/14 23:18:41;;;;;;;6.72;2.08;;;27.70;56.40;;;;;;10468988;28;20527;-38
2023/09/14 23:23:43;;;;;;;4.78;1.95;;;27.60;56.30;;;;;;10483134;28;20164;-34
2023/09/14 23:28:46;;;;;;;4.10;1.65;;;27.60;56.50;;;;;;10495852;28;20079;-38
2023/09/14 23:33:48;;;;;;;3.17;1.98;;;27.60;56.50;;;;;;10509582;28;20072;-41
2023/09/14 23:38:50;;;;;;;3.30;2.08;;;27.50;56.50;;;;;;10489973;28;20077;-35
2023/09/14 23:43:55;;;;;;;2.40;1.80;;;27.50;56.60;;;;;;10505068;28;20040;-34
2023/09/14 23:48:57;;;;;;;4.13;2.10;;;27.50;56.60;;;;;;10508634;28;20052;-33
2023/09/14 23:54:00;;;;;;;2.92;1.92;;;27.40;56.50;;;;;;10495699;28;20051;-32
2023/09/14 23:59:04;;;;;;;3.95;1.85;;;27.40;56.50;;;;;;10504107;28;20060;-31
